SIA462 WSSS-VCBI
Flight info
| Callsign | SIA462 |
|---|---|
| Flight time | N/A |
| Altitude | 40000 |
| Route | MIBEL1A MIBEL L762 MOZES M300 OKABU P756 MABIX P570 VEVET DUDAL1A |
| Aircraft | A359/H-SDE1E2E3GHIJ1J2J3J5M1P2RWXYZ/LB1D1 |
Departure
| Time | N/A |
|---|---|
| Airport | Singapore Changi Airport (WSSS) |
Arrival
| Time | 2026-04-24 21:26 |
|---|---|
| Airport | Bandaranaike International Colombo Airport (VCBI) |
| Time | Latitude | Longitude | Altitude | Speed | Heading |
|---|---|---|---|---|---|
| 2026-04-24 18:54 | 3.05480 | 98.84724 | 39860 ft | 491 kts | 286° |
| 2026-04-24 18:55 | 3.08539 | 98.74938 | 39859 ft | 491 kts | 286° |
| 2026-04-24 18:56 | 3.10576 | 98.68417 | 39861 ft | 491 kts | 286° |
| 2026-04-24 18:56 | 3.12614 | 98.61895 | 39860 ft | 491 kts | 287° |
| 2026-04-24 18:57 | 3.14639 | 98.55413 | 39859 ft | 492 kts | 286° |
| 2026-04-24 18:57 | 3.16680 | 98.48880 | 39860 ft | 492 kts | 286° |
| 2026-04-24 18:58 | 3.18719 | 98.42344 | 39859 ft | 492 kts | 286° |
| 2026-04-24 18:58 | 3.20759 | 98.35807 | 39862 ft | 492 kts | 286° |
| 2026-04-24 18:59 | 3.22799 | 98.29268 | 39862 ft | 492 kts | 286° |
| 2026-04-24 18:59 | 3.24839 | 98.22728 | 39859 ft | 493 kts | 286° |
| 2026-04-24 19:00 | 3.26880 | 98.16180 | 39860 ft | 493 kts | 286° |
| 2026-04-24 19:00 | 3.28923 | 98.09628 | 39862 ft | 493 kts | 286° |
| 2026-04-24 19:01 | 3.30968 | 98.03071 | 39860 ft | 493 kts | 286° |
| 2026-04-24 19:01 | 3.33009 | 97.96520 | 39859 ft | 493 kts | 286° |
| 2026-04-24 19:02 | 3.34709 | 97.91061 | 39860 ft | 495 kts | 286° |
| 2026-04-24 19:02 | 3.37105 | 97.83365 | 39860 ft | 495 kts | 286° |
| 2026-04-24 19:03 | 3.39155 | 97.76782 | 39860 ft | 496 kts | 286° |
| 2026-04-24 19:03 | 3.41201 | 97.70201 | 39861 ft | 495 kts | 286° |
| 2026-04-24 19:04 | 3.43195 | 97.63602 | 39858 ft | 495 kts | 282° |
| 2026-04-24 19:04 | 3.43878 | 97.56786 | 39861 ft | 492 kts | 268° |
| 2026-04-24 19:05 | 3.43579 | 97.49946 | 39859 ft | 492 kts | 265° |
| 2026-04-24 19:05 | 3.43120 | 97.43154 | 39861 ft | 493 kts | 265° |
| 2026-04-24 19:06 | 3.42656 | 97.36314 | 39859 ft | 493 kts | 265° |
| 2026-04-24 19:06 | 3.42216 | 97.29466 | 39860 ft | 493 kts | 265° |
| 2026-04-24 19:07 | 3.41789 | 97.22620 | 39859 ft | 493 kts | 265° |
| 2026-04-24 19:07 | 3.41431 | 97.16877 | 39861 ft | 493 kts | 265° |
| 2026-04-24 19:08 | 3.40932 | 97.08909 | 39859 ft | 494 kts | 265° |
| 2026-04-24 19:08 | 3.40499 | 97.02037 | 39859 ft | 495 kts | 265° |
| 2026-04-24 19:09 | 3.40064 | 96.95161 | 39860 ft | 495 kts | 265° |
| 2026-04-24 19:09 | 3.39633 | 96.88284 | 39859 ft | 495 kts | 265° |
| 2026-04-24 19:10 | 3.39201 | 96.81414 | 39860 ft | 495 kts | 265° |
| 2026-04-24 19:10 | 3.38768 | 96.74516 | 39859 ft | 496 kts | 265° |
| 2026-04-24 19:11 | 3.38334 | 96.67624 | 39861 ft | 496 kts | 265° |
| 2026-04-24 19:11 | 3.37897 | 96.60730 | 39859 ft | 497 kts | 265° |
| 2026-04-24 19:12 | 3.37462 | 96.53876 | 39860 ft | 497 kts | 265° |
| 2026-04-24 19:12 | 3.37024 | 96.46974 | 39859 ft | 497 kts | 265° |
| 2026-04-24 19:13 | 3.36658 | 96.41189 | 39859 ft | 497 kts | 265° |
| 2026-04-24 19:13 | 3.36149 | 96.33160 | 39859 ft | 498 kts | 265° |
| 2026-04-24 19:14 | 3.35711 | 96.26248 | 39859 ft | 497 kts | 265° |
| 2026-04-24 19:14 | 3.35269 | 96.19340 | 39861 ft | 497 kts | 265° |
| 2026-04-24 19:15 | 3.34828 | 96.12436 | 39859 ft | 497 kts | 265° |
| 2026-04-24 19:15 | 3.34460 | 96.06699 | 39860 ft | 497 kts | 265° |
| 2026-04-24 19:16 | 3.33800 | 95.96340 | 39859 ft | 498 kts | 265° |
| 2026-04-24 19:16 | 3.33358 | 95.89417 | 39842 ft | 499 kts | 265° |
| 2026-04-24 19:17 | 3.32915 | 95.82477 | 39844 ft | 500 kts | 265° |
| 2026-04-24 19:17 | 3.32468 | 95.75538 | 39839 ft | 499 kts | 265° |
| 2026-04-24 19:18 | 3.32021 | 95.68601 | 39838 ft | 500 kts | 265° |
| 2026-04-24 19:18 | 3.31576 | 95.61655 | 39837 ft | 500 kts | 265° |
| 2026-04-24 19:19 | 3.31129 | 95.54707 | 39843 ft | 500 kts | 265° |
| 2026-04-24 19:19 | 3.30681 | 95.47761 | 39839 ft | 500 kts | 265° |
| 2026-04-24 19:20 | 3.30234 | 95.40810 | 39848 ft | 501 kts | 265° |
| 2026-04-24 19:20 | 3.29786 | 95.33858 | 39853 ft | 500 kts | 265° |
| 2026-04-24 19:21 | 3.29336 | 95.26909 | 39850 ft | 501 kts | 265° |
| 2026-04-24 19:21 | 3.28885 | 95.19947 | 39850 ft | 501 kts | 265° |
| 2026-04-24 19:22 | 3.28436 | 95.12988 | 39852 ft | 501 kts | 265° |
| 2026-04-24 19:22 | 3.27986 | 95.06024 | 39850 ft | 502 kts | 265° |
| 2026-04-24 19:23 | 3.27534 | 94.99064 | 39850 ft | 501 kts | 265° |
| 2026-04-24 19:23 | 3.27084 | 94.92150 | 39850 ft | 501 kts | 265° |
| 2026-04-24 19:24 | 3.26937 | 94.85188 | 39859 ft | 501 kts | 275° |
| 2026-04-24 19:24 | 3.28272 | 94.78356 | 39861 ft | 501 kts | 284° |
| 2026-04-24 19:25 | 3.30024 | 94.71600 | 39858 ft | 502 kts | 285° |
| 2026-04-24 19:25 | 3.31836 | 94.64857 | 39860 ft | 502 kts | 285° |
| 2026-04-24 19:26 | 3.33624 | 94.58113 | 39859 ft | 501 kts | 285° |
| 2026-04-24 19:26 | 3.35393 | 94.51374 | 39861 ft | 500 kts | 285° |
| 2026-04-24 19:27 | 3.37158 | 94.44637 | 39859 ft | 501 kts | 285° |
| 2026-04-24 19:27 | 3.38919 | 94.37893 | 39859 ft | 501 kts | 285° |
| 2026-04-24 19:28 | 3.40683 | 94.31146 | 39861 ft | 501 kts | 285° |
| 2026-04-24 19:28 | 3.42445 | 94.24402 | 39859 ft | 501 kts | 285° |
| 2026-04-24 19:29 | 3.45086 | 94.14298 | 39860 ft | 500 kts | 285° |
| 2026-04-24 19:30 | 3.46845 | 94.07574 | 39861 ft | 500 kts | 285° |
| 2026-04-24 19:30 | 3.48605 | 94.00839 | 39861 ft | 500 kts | 285° |
| 2026-04-24 19:31 | 3.50354 | 93.94146 | 39859 ft | 500 kts | 285° |
| 2026-04-24 19:31 | 3.52110 | 93.87410 | 39862 ft | 500 kts | 285° |
| 2026-04-24 19:32 | 3.53865 | 93.80681 | 39859 ft | 500 kts | 285° |
| 2026-04-24 19:32 | 3.55621 | 93.73954 | 39859 ft | 500 kts | 285° |
| 2026-04-24 19:33 | 3.57377 | 93.67223 | 39860 ft | 500 kts | 285° |
| 2026-04-24 19:33 | 3.59133 | 93.60492 | 39858 ft | 499 kts | 285° |
| 2026-04-24 19:34 | 3.60888 | 93.53767 | 39852 ft | 500 kts | 285° |
| 2026-04-24 19:34 | 3.62642 | 93.47033 | 39849 ft | 500 kts | 285° |
| 2026-04-24 19:35 | 3.64394 | 93.40308 | 39849 ft | 499 kts | 285° |
| 2026-04-24 19:35 | 3.66141 | 93.33588 | 39850 ft | 499 kts | 285° |
| 2026-04-24 19:36 | 3.67890 | 93.26871 | 39850 ft | 499 kts | 285° |
| 2026-04-24 19:36 | 3.69637 | 93.20155 | 39849 ft | 499 kts | 285° |
| 2026-04-24 19:37 | 3.71385 | 93.13438 | 39850 ft | 498 kts | 285° |
| 2026-04-24 19:37 | 3.73138 | 93.06726 | 39853 ft | 498 kts | 285° |
| 2026-04-24 19:38 | 3.74886 | 93.00004 | 39854 ft | 498 kts | 285° |
| 2026-04-24 19:38 | 3.76619 | 92.93311 | 39852 ft | 497 kts | 285° |
| 2026-04-24 19:39 | 3.78360 | 92.86607 | 39852 ft | 497 kts | 285° |
| 2026-04-24 19:39 | 3.80098 | 92.79913 | 39849 ft | 497 kts | 285° |
| 2026-04-24 19:40 | 3.81838 | 92.73215 | 39851 ft | 497 kts | 285° |
| 2026-04-24 19:40 | 3.83579 | 92.66516 | 39852 ft | 497 kts | 285° |
| 2026-04-24 19:41 | 3.85313 | 92.59828 | 39848 ft | 496 kts | 285° |
| 2026-04-24 19:41 | 3.87048 | 92.53144 | 39848 ft | 496 kts | 285° |
| 2026-04-24 19:42 | 3.88779 | 92.46462 | 39848 ft | 495 kts | 285° |
| 2026-04-24 19:42 | 3.90509 | 92.39785 | 39848 ft | 495 kts | 285° |
| 2026-04-24 19:43 | 3.92240 | 92.33107 | 39854 ft | 495 kts | 285° |
| 2026-04-24 19:43 | 3.93969 | 92.26436 | 39852 ft | 495 kts | 285° |
| 2026-04-24 19:44 | 3.95696 | 92.19767 | 39852 ft | 495 kts | 285° |
| 2026-04-24 19:44 | 3.97422 | 92.13095 | 39855 ft | 495 kts | 285° |
| 2026-04-24 19:45 | 3.99138 | 92.06466 | 39854 ft | 495 kts | 285° |
| 2026-04-24 19:45 | 4.00865 | 91.99788 | 39854 ft | 495 kts | 285° |
| 2026-04-24 19:46 | 4.02566 | 91.93108 | 39848 ft | 495 kts | 285° |
| 2026-04-24 19:46 | 4.04243 | 91.86414 | 39848 ft | 495 kts | 285° |
| 2026-04-24 19:47 | 4.05920 | 91.79729 | 39854 ft | 495 kts | 285° |
| 2026-04-24 19:47 | 4.07601 | 91.73039 | 39860 ft | 495 kts | 285° |
| 2026-04-24 19:48 | 4.09284 | 91.66348 | 39861 ft | 495 kts | 285° |
| 2026-04-24 19:48 | 4.11809 | 91.56312 | 39860 ft | 496 kts | 285° |
| 2026-04-24 19:49 | 4.15168 | 91.42952 | 39861 ft | 497 kts | 285° |
| 2026-04-24 19:50 | 4.18538 | 91.29547 | 39860 ft | 496 kts | 285° |
| 2026-04-24 19:51 | 4.21061 | 91.19481 | 39860 ft | 497 kts | 285° |
| 2026-04-24 19:52 | 4.23590 | 91.09407 | 39861 ft | 497 kts | 285° |
| 2026-04-24 19:52 | 4.25274 | 91.02681 | 39859 ft | 497 kts | 285° |
| 2026-04-24 19:53 | 4.26957 | 90.95966 | 39859 ft | 497 kts | 285° |
| 2026-04-24 19:54 | 4.29483 | 90.85892 | 39859 ft | 497 kts | 285° |
| 2026-04-24 19:54 | 4.31155 | 90.79217 | 39861 ft | 497 kts | 285° |
| 2026-04-24 19:55 | 4.32281 | 90.74722 | 39860 ft | 497 kts | 285° |
| 2026-04-24 19:55 | 4.34522 | 90.65768 | 39858 ft | 498 kts | 285° |
| 2026-04-24 19:56 | 4.36203 | 90.59045 | 39860 ft | 497 kts | 285° |
| 2026-04-24 19:56 | 4.37884 | 90.52320 | 39859 ft | 498 kts | 285° |
| 2026-04-24 19:57 | 4.39565 | 90.45595 | 39858 ft | 497 kts | 285° |
| 2026-04-24 19:57 | 4.41243 | 90.38873 | 39859 ft | 497 kts | 285° |
| 2026-04-24 19:58 | 4.43067 | 90.32197 | 39860 ft | 496 kts | 287° |
| 2026-04-24 19:58 | 4.44980 | 90.25545 | 39860 ft | 497 kts | 287° |
| 2026-04-24 19:59 | 4.46874 | 90.18895 | 39861 ft | 496 kts | 287° |
| 2026-04-24 19:59 | 4.48749 | 90.12233 | 39861 ft | 497 kts | 287° |
| 2026-04-24 20:00 | 4.50616 | 90.05567 | 39860 ft | 497 kts | 287° |
| 2026-04-24 20:00 | 4.52481 | 89.98896 | 39861 ft | 497 kts | 287° |
| 2026-04-24 20:01 | 4.54342 | 89.92235 | 39860 ft | 496 kts | 287° |
| 2026-04-24 20:01 | 4.56205 | 89.85578 | 39859 ft | 496 kts | 287° |
| 2026-04-24 20:02 | 4.57755 | 89.80043 | 39860 ft | 496 kts | 287° |
| 2026-04-24 20:02 | 4.59918 | 89.72306 | 39860 ft | 496 kts | 287° |
| 2026-04-24 20:03 | 4.61776 | 89.65653 | 39861 ft | 496 kts | 287° |
| 2026-04-24 20:03 | 4.63638 | 89.58989 | 39861 ft | 496 kts | 287° |
| 2026-04-24 20:04 | 4.65500 | 89.52325 | 39861 ft | 496 kts | 287° |
| 2026-04-24 20:04 | 4.67359 | 89.45665 | 39861 ft | 496 kts | 286° |
| 2026-04-24 20:05 | 4.69218 | 89.39003 | 39859 ft | 496 kts | 287° |
| 2026-04-24 20:05 | 4.70774 | 89.33427 | 39866 ft | 496 kts | 286° |
| 2026-04-24 20:06 | 4.72930 | 89.25687 | 39868 ft | 496 kts | 286° |
| 2026-04-24 20:06 | 4.74472 | 89.20156 | 39870 ft | 496 kts | 286° |
| 2026-04-24 20:07 | 4.76026 | 89.14582 | 39869 ft | 496 kts | 286° |
| 2026-04-24 20:07 | 4.78180 | 89.06851 | 39869 ft | 495 kts | 286° |
| 2026-04-24 20:08 | 4.80032 | 89.00203 | 39870 ft | 495 kts | 286° |
| 2026-04-24 20:08 | 4.81885 | 88.93546 | 39869 ft | 495 kts | 286° |
| 2026-04-24 20:09 | 4.83735 | 88.86894 | 39870 ft | 495 kts | 286° |
| 2026-04-24 20:09 | 4.85584 | 88.80240 | 39870 ft | 495 kts | 286° |
| 2026-04-24 20:10 | 4.87433 | 88.73587 | 39869 ft | 495 kts | 286° |
| 2026-04-24 20:10 | 4.89283 | 88.66936 | 39869 ft | 495 kts | 286° |
| 2026-04-24 20:11 | 4.91129 | 88.60291 | 39869 ft | 495 kts | 286° |
| 2026-04-24 20:11 | 4.92973 | 88.53644 | 39869 ft | 495 kts | 286° |
| 2026-04-24 20:12 | 4.94817 | 88.46995 | 39869 ft | 495 kts | 286° |
| 2026-04-24 20:12 | 4.96650 | 88.40387 | 39868 ft | 495 kts | 286° |
| 2026-04-24 20:13 | 4.98493 | 88.33738 | 39868 ft | 495 kts | 286° |
| 2026-04-24 20:13 | 5.00338 | 88.27085 | 39869 ft | 495 kts | 286° |
| 2026-04-24 20:14 | 5.02183 | 88.20429 | 39869 ft | 495 kts | 286° |
| 2026-04-24 20:14 | 5.04024 | 88.13783 | 39870 ft | 495 kts | 286° |
| 2026-04-24 20:15 | 5.05864 | 88.07136 | 39869 ft | 495 kts | 286° |
| 2026-04-24 20:15 | 5.07703 | 88.00485 | 39869 ft | 495 kts | 286° |
| 2026-04-24 20:16 | 5.09506 | 87.93832 | 39869 ft | 494 kts | 285° |
| 2026-04-24 20:16 | 5.11246 | 87.87170 | 39879 ft | 493 kts | 285° |
| 2026-04-24 20:17 | 5.12983 | 87.80521 | 39879 ft | 492 kts | 285° |
| 2026-04-24 20:17 | 5.15604 | 87.70561 | 39879 ft | 492 kts | 285° |
| 2026-04-24 20:18 | 5.17355 | 87.63922 | 39878 ft | 492 kts | 285° |
| 2026-04-24 20:18 | 5.19106 | 87.57282 | 39878 ft | 492 kts | 285° |
| 2026-04-24 20:19 | 5.20854 | 87.50645 | 39878 ft | 492 kts | 285° |
| 2026-04-24 20:19 | 5.22590 | 87.44051 | 39879 ft | 492 kts | 285° |
| 2026-04-24 20:20 | 5.24335 | 87.37421 | 39879 ft | 491 kts | 285° |
| 2026-04-24 20:20 | 5.26077 | 87.30794 | 39879 ft | 491 kts | 285° |
| 2026-04-24 20:21 | 5.27818 | 87.24163 | 39879 ft | 491 kts | 285° |
| 2026-04-24 20:21 | 5.29559 | 87.17538 | 39879 ft | 491 kts | 285° |
| 2026-04-24 20:22 | 5.31301 | 87.10908 | 39878 ft | 491 kts | 285° |
| 2026-04-24 20:22 | 5.33041 | 87.04283 | 39879 ft | 491 kts | 285° |
| 2026-04-24 20:23 | 5.34777 | 86.97664 | 39879 ft | 490 kts | 285° |
| 2026-04-24 20:23 | 5.36511 | 86.91052 | 39879 ft | 490 kts | 285° |
| 2026-04-24 20:24 | 5.38244 | 86.84440 | 39878 ft | 490 kts | 285° |
| 2026-04-24 20:24 | 5.39976 | 86.77829 | 39886 ft | 490 kts | 285° |
| 2026-04-24 20:25 | 5.41707 | 86.71220 | 39887 ft | 489 kts | 285° |
| 2026-04-24 20:25 | 5.43437 | 86.64617 | 39887 ft | 489 kts | 285° |
| 2026-04-24 20:26 | 5.45164 | 86.58017 | 39888 ft | 489 kts | 285° |
| 2026-04-24 20:26 | 5.46888 | 86.51421 | 39888 ft | 488 kts | 285° |
| 2026-04-24 20:27 | 5.48611 | 86.44835 | 39888 ft | 488 kts | 285° |
| 2026-04-24 20:27 | 5.50322 | 86.38284 | 39888 ft | 488 kts | 285° |
| 2026-04-24 20:28 | 5.52041 | 86.31697 | 39888 ft | 488 kts | 285° |
| 2026-04-24 20:28 | 5.53760 | 86.25109 | 39888 ft | 488 kts | 284° |
| 2026-04-24 20:29 | 5.55481 | 86.18516 | 39887 ft | 488 kts | 284° |
| 2026-04-24 20:29 | 5.57199 | 86.11930 | 39897 ft | 488 kts | 284° |
| 2026-04-24 20:30 | 5.58918 | 86.05333 | 39896 ft | 488 kts | 284° |
| 2026-04-24 20:30 | 5.60635 | 85.98737 | 39888 ft | 488 kts | 284° |
| 2026-04-24 20:31 | 5.62351 | 85.92146 | 39887 ft | 488 kts | 284° |
| 2026-04-24 20:31 | 5.64065 | 85.85563 | 39888 ft | 487 kts | 284° |
| 2026-04-24 20:32 | 5.65780 | 85.78978 | 39888 ft | 487 kts | 284° |
| 2026-04-24 20:32 | 5.67492 | 85.72397 | 39888 ft | 487 kts | 284° |
| 2026-04-24 20:33 | 5.69199 | 85.65816 | 39888 ft | 487 kts | 284° |
| 2026-04-24 20:33 | 5.70908 | 85.59234 | 39897 ft | 487 kts | 284° |
| 2026-04-24 20:34 | 5.72617 | 85.52653 | 39897 ft | 488 kts | 284° |
| 2026-04-24 20:34 | 5.74326 | 85.46065 | 39897 ft | 487 kts | 284° |
| 2026-04-24 20:35 | 5.76033 | 85.39480 | 39897 ft | 487 kts | 284° |
| 2026-04-24 20:35 | 5.77738 | 85.32898 | 39897 ft | 487 kts | 284° |
| 2026-04-24 20:36 | 5.79444 | 85.26321 | 39897 ft | 487 kts | 284° |
| 2026-04-24 20:36 | 5.81147 | 85.19747 | 39897 ft | 487 kts | 284° |
| 2026-04-24 20:37 | 5.82847 | 85.13174 | 39897 ft | 486 kts | 284° |
| 2026-04-24 20:37 | 5.84548 | 85.06600 | 39897 ft | 486 kts | 284° |
| 2026-04-24 20:38 | 5.86248 | 85.00027 | 39897 ft | 486 kts | 284° |
| 2026-04-24 20:38 | 5.87935 | 84.93502 | 39897 ft | 486 kts | 284° |
| 2026-04-24 20:39 | 5.89632 | 84.86936 | 39897 ft | 486 kts | 284° |
| 2026-04-24 20:39 | 5.91328 | 84.80367 | 39897 ft | 486 kts | 284° |
| 2026-04-24 20:40 | 5.93022 | 84.73801 | 39897 ft | 486 kts | 284° |
| 2026-04-24 20:40 | 5.94715 | 84.67231 | 39897 ft | 486 kts | 284° |
| 2026-04-24 20:41 | 5.96410 | 84.60663 | 39897 ft | 486 kts | 284° |
| 2026-04-24 20:41 | 5.98101 | 84.54100 | 39897 ft | 485 kts | 284° |
| 2026-04-24 20:42 | 5.99790 | 84.47538 | 39897 ft | 485 kts | 284° |
| 2026-04-24 20:42 | 6.01479 | 84.40975 | 39897 ft | 486 kts | 284° |
| 2026-04-24 20:43 | 6.03172 | 84.34395 | 39896 ft | 486 kts | 284° |
| 2026-04-24 20:43 | 6.04862 | 84.27826 | 39897 ft | 486 kts | 284° |
| 2026-04-24 20:44 | 6.06550 | 84.21254 | 39897 ft | 486 kts | 284° |
| 2026-04-24 20:44 | 6.08237 | 84.14680 | 39897 ft | 486 kts | 284° |
| 2026-04-24 20:45 | 6.09924 | 84.08108 | 39897 ft | 486 kts | 284° |
| 2026-04-24 20:45 | 6.11612 | 84.01534 | 39897 ft | 486 kts | 284° |
| 2026-04-24 20:46 | 6.13297 | 83.94959 | 39905 ft | 486 kts | 284° |
| 2026-04-24 20:46 | 6.14981 | 83.88383 | 39906 ft | 486 kts | 284° |
| 2026-04-24 20:47 | 6.16652 | 83.81858 | 39906 ft | 486 kts | 284° |
| 2026-04-24 20:47 | 6.18333 | 83.75285 | 39906 ft | 486 kts | 284° |
| 2026-04-24 20:48 | 6.20015 | 83.68707 | 39906 ft | 486 kts | 284° |
| 2026-04-24 20:48 | 6.21696 | 83.62128 | 39906 ft | 486 kts | 284° |
| 2026-04-24 20:49 | 6.23379 | 83.55543 | 39906 ft | 487 kts | 284° |
| 2026-04-24 20:49 | 6.25061 | 83.48955 | 39906 ft | 487 kts | 284° |
| 2026-04-24 20:50 | 6.26744 | 83.42354 | 39906 ft | 487 kts | 284° |
| 2026-04-24 20:50 | 6.28427 | 83.35757 | 39906 ft | 487 kts | 284° |
| 2026-04-24 20:51 | 6.30109 | 83.29157 | 39898 ft | 488 kts | 284° |
| 2026-04-24 20:51 | 6.31791 | 83.22550 | 39887 ft | 488 kts | 283° |
| 2026-04-24 20:52 | 6.33474 | 83.15941 | 39888 ft | 488 kts | 283° |
| 2026-04-24 20:52 | 6.35156 | 83.09337 | 39888 ft | 488 kts | 283° |
| 2026-04-24 20:53 | 6.36837 | 83.02727 | 39887 ft | 488 kts | 283° |
| 2026-04-24 20:53 | 6.38517 | 82.96114 | 39888 ft | 488 kts | 283° |
| 2026-04-24 20:54 | 6.39913 | 82.90619 | 39887 ft | 489 kts | 283° |
| 2026-04-24 20:54 | 6.41595 | 82.83995 | 39888 ft | 489 kts | 283° |
| 2026-04-24 20:55 | 6.43276 | 82.77370 | 39888 ft | 489 kts | 283° |
| 2026-04-24 20:55 | 6.44958 | 82.70744 | 39887 ft | 489 kts | 283° |
| 2026-04-24 20:56 | 6.46637 | 82.64114 | 39887 ft | 489 kts | 283° |
| 2026-04-24 20:56 | 6.48318 | 82.57482 | 39888 ft | 490 kts | 283° |
| 2026-04-24 20:57 | 6.49997 | 82.50845 | 39888 ft | 490 kts | 283° |
| 2026-04-24 20:57 | 6.51676 | 82.44212 | 39897 ft | 490 kts | 283° |
| 2026-04-24 20:58 | 6.53355 | 82.37575 | 39897 ft | 490 kts | 283° |
| 2026-04-24 20:58 | 6.55031 | 82.30937 | 39897 ft | 490 kts | 283° |
| 2026-04-24 20:59 | 6.56696 | 82.24347 | 39896 ft | 489 kts | 283° |
| 2026-04-24 20:59 | 6.58372 | 82.17705 | 39897 ft | 490 kts | 283° |
| 2026-04-24 21:00 | 6.60047 | 82.11069 | 39897 ft | 490 kts | 283° |
| 2026-04-24 21:00 | 6.60082 | 82.10928 | 39897 ft | 490 kts | 283° |
| 2026-04-24 21:03 | 6.61526 | 82.05206 | 39897 ft | 489 kts | 283° |
| 2026-04-24 21:03 | 6.63193 | 81.98587 | 39897 ft | 488 kts | 283° |
| 2026-04-24 21:04 | 6.64858 | 81.91965 | 39897 ft | 488 kts | 283° |
| 2026-04-24 21:04 | 6.66515 | 81.85355 | 39897 ft | 487 kts | 283° |
| 2026-04-24 21:05 | 6.68174 | 81.78741 | 39897 ft | 487 kts | 283° |
| 2026-04-24 21:05 | 6.68999 | 81.75453 | 39698 ft | 482 kts | 283° |
| 2026-04-24 21:05 | 6.69820 | 81.72177 | 38932 ft | 484 kts | 283° |
| 2026-04-24 21:06 | 6.70645 | 81.68882 | 38031 ft | 488 kts | 283° |
| 2026-04-24 21:06 | 6.71478 | 81.65554 | 37153 ft | 492 kts | 283° |
| 2026-04-24 21:06 | 6.72314 | 81.62218 | 36304 ft | 494 kts | 283° |
| 2026-04-24 21:06 | 6.73155 | 81.58859 | 35423 ft | 496 kts | 283° |
| 2026-04-24 21:07 | 6.73999 | 81.55485 | 34489 ft | 500 kts | 283° |
| 2026-04-24 21:07 | 6.74886 | 81.52091 | 33450 ft | 505 kts | 285° |
| 2026-04-24 21:07 | 6.76225 | 81.48796 | 32338 ft | 513 kts | 296° |
| 2026-04-24 21:07 | 6.77902 | 81.45606 | 31193 ft | 519 kts | 297° |
| 2026-04-24 21:08 | 6.79644 | 81.42401 | 30040 ft | 525 kts | 298° |
| 2026-04-24 21:08 | 6.81402 | 81.39166 | 28963 ft | 528 kts | 298° |
| 2026-04-24 21:08 | 6.83158 | 81.35923 | 28026 ft | 527 kts | 298° |
| 2026-04-24 21:08 | 6.84906 | 81.32691 | 27192 ft | 524 kts | 298° |
| 2026-04-24 21:09 | 6.86639 | 81.29484 | 26389 ft | 520 kts | 298° |
| 2026-04-24 21:09 | 6.88356 | 81.26302 | 25671 ft | 514 kts | 298° |
| 2026-04-24 21:09 | 6.90050 | 81.23159 | 24934 ft | 509 kts | 298° |
| 2026-04-24 21:09 | 6.91595 | 81.20022 | 24178 ft | 505 kts | 291° |
| 2026-04-24 21:10 | 6.92627 | 81.16616 | 23453 ft | 500 kts | 285° |
| 2026-04-24 21:10 | 6.93457 | 81.13282 | 22702 ft | 495 kts | 284° |
| 2026-04-24 21:10 | 6.94272 | 81.09939 | 22011 ft | 489 kts | 284° |
| 2026-04-24 21:10 | 6.95083 | 81.06636 | 21272 ft | 483 kts | 284° |
| 2026-04-24 21:11 | 6.95887 | 81.03374 | 20561 ft | 478 kts | 284° |
| 2026-04-24 21:11 | 6.96687 | 81.00148 | 19836 ft | 472 kts | 284° |
| 2026-04-24 21:11 | 6.97479 | 80.96961 | 19131 ft | 466 kts | 284° |
| 2026-04-24 21:11 | 6.98261 | 80.93815 | 18391 ft | 461 kts | 284° |
| 2026-04-24 21:12 | 6.99035 | 80.90698 | 17688 ft | 456 kts | 284° |
| 2026-04-24 21:12 | 6.99798 | 80.87622 | 16985 ft | 450 kts | 284° |
| 2026-04-24 21:12 | 7.00556 | 80.84584 | 16274 ft | 445 kts | 284° |
| 2026-04-24 21:12 | 7.01300 | 80.81583 | 15582 ft | 439 kts | 284° |
| 2026-04-24 21:13 | 7.02033 | 80.78624 | 14914 ft | 432 kts | 284° |
| 2026-04-24 21:13 | 7.02754 | 80.75715 | 14246 ft | 425 kts | 284° |
| 2026-04-24 21:13 | 7.03466 | 80.72845 | 13587 ft | 419 kts | 284° |
| 2026-04-24 21:13 | 7.04168 | 80.70014 | 12807 ft | 415 kts | 284° |
| 2026-04-24 21:14 | 7.04863 | 80.67210 | 12050 ft | 411 kts | 284° |
| 2026-04-24 21:14 | 7.05550 | 80.64440 | 11389 ft | 404 kts | 284° |
| 2026-04-24 21:14 | 7.06223 | 80.61744 | 11048 ft | 389 kts | 284° |
| 2026-04-24 21:14 | 7.06861 | 80.59174 | 10932 ft | 368 kts | 284° |
| 2026-04-24 21:15 | 7.07465 | 80.56734 | 10828 ft | 350 kts | 284° |
| 2026-04-24 21:15 | 7.08037 | 80.54417 | 10723 ft | 333 kts | 284° |
| 2026-04-24 21:15 | 7.08583 | 80.52209 | 10613 ft | 318 kts | 284° |
| 2026-04-24 21:15 | 7.09107 | 80.50095 | 10457 ft | 305 kts | 284° |
| 2026-04-24 21:16 | 7.09615 | 80.48043 | 10122 ft | 300 kts | 284° |
| 2026-04-24 21:16 | 7.10115 | 80.46023 | 9800 ft | 294 kts | 284° |
| 2026-04-24 21:16 | 7.10612 | 80.44015 | 9460 ft | 299 kts | 284° |
| 2026-04-24 21:16 | 7.11117 | 80.41978 | 9125 ft | 300 kts | 284° |
| 2026-04-24 21:17 | 7.11622 | 80.39943 | 8790 ft | 300 kts | 284° |
| 2026-04-24 21:17 | 7.12115 | 80.37939 | 8537 ft | 299 kts | 284° |
| 2026-04-24 21:17 | 7.12617 | 80.35910 | 8256 ft | 298 kts | 284° |
| 2026-04-24 21:17 | 7.13117 | 80.33891 | 7972 ft | 296 kts | 284° |
| 2026-04-24 21:18 | 7.13614 | 80.31887 | 7634 ft | 295 kts | 284° |
| 2026-04-24 21:18 | 7.14106 | 80.29891 | 7306 ft | 293 kts | 284° |
| 2026-04-24 21:18 | 7.14596 | 80.27906 | 6976 ft | 292 kts | 284° |
| 2026-04-24 21:18 | 7.15087 | 80.25929 | 6660 ft | 290 kts | 284° |
| 2026-04-24 21:19 | 7.15572 | 80.23962 | 6323 ft | 289 kts | 284° |
| 2026-04-24 21:19 | 7.16054 | 80.22010 | 5994 ft | 287 kts | 284° |
| 2026-04-24 21:19 | 7.16534 | 80.20065 | 5669 ft | 285 kts | 284° |
| 2026-04-24 21:19 | 7.17012 | 80.18132 | 5352 ft | 284 kts | 284° |
| 2026-04-24 21:20 | 7.18151 | 80.14352 | 4712 ft | 282 kts | 299° |
| 2026-04-24 21:20 | 7.19251 | 80.12726 | 4394 ft | 280 kts | 307° |
| 2026-04-24 21:20 | 7.20446 | 80.11181 | 4083 ft | 280 kts | 308° |
| 2026-04-24 21:21 | 7.21647 | 80.09644 | 3802 ft | 276 kts | 308° |
| 2026-04-24 21:21 | 7.22797 | 80.08162 | 3668 ft | 262 kts | 308° |
| 2026-04-24 21:21 | 7.23895 | 80.06737 | 3510 ft | 255 kts | 308° |
| 2026-04-24 21:21 | 7.24983 | 80.05327 | 3237 ft | 255 kts | 308° |
| 2026-04-24 21:22 | 7.26068 | 80.03918 | 2959 ft | 255 kts | 308° |
| 2026-04-24 21:22 | 7.27150 | 80.02511 | 2685 ft | 253 kts | 307° |
| 2026-04-24 21:22 | 7.28200 | 80.01142 | 2511 ft | 244 kts | 308° |
| 2026-04-24 21:22 | 7.29163 | 79.99808 | 2489 ft | 227 kts | 298° |
| 2026-04-24 21:23 | 7.29364 | 79.98355 | 2519 ft | 202 kts | 254° |
| 2026-04-24 21:23 | 7.28824 | 79.97143 | 2505 ft | 181 kts | 234° |
| 2026-04-24 21:23 | 7.28090 | 79.96171 | 2285 ft | 171 kts | 229° |
| 2026-04-24 21:23 | 7.27240 | 79.95387 | 2012 ft | 161 kts | 209° |
| 2026-04-24 21:24 | 7.26367 | 79.94738 | 1788 ft | 151 kts | 221° |
| 2026-04-24 21:24 | 7.25563 | 79.94091 | 1584 ft | 145 kts | 214° |
| 2026-04-24 21:24 | 7.24763 | 79.93484 | 1390 ft | 144 kts | 216° |
| 2026-04-24 21:24 | 7.23967 | 79.92866 | 1194 ft | 145 kts | 216° |
| 2026-04-24 21:25 | 7.23168 | 79.92252 | 1033 ft | 138 kts | 218° |
| 2026-04-24 21:25 | 7.22404 | 79.91631 | 829 ft | 153 kts | 218° |
| 2026-04-24 21:25 | 7.21548 | 79.90980 | 563 ft | 150 kts | 214° |
| 2026-04-24 21:25 | 7.20740 | 79.90369 | 415 ft | 142 kts | 216° |
| 2026-04-24 21:26 | 7.19943 | 79.89772 | 246 ft | 144 kts | 214° |
| 2026-04-24 21:26 | 7.19139 | 79.89159 | 61 ft | 144 kts | 217° |
| 2026-04-24 21:26 | 7.18373 | 79.88572 | 34 ft | 126 kts | 219° |
| 2026-04-24 21:26 | 7.17905 | 79.88213 | 36 ft | 49 kts | 217° |
| 2026-04-24 21:27 | 7.17645 | 79.88015 | 36 ft | 40 kts | 217° |
| 2026-04-24 21:27 | 7.17526 | 79.87945 | 36 ft | 16 kts | 174° |
| 2026-04-24 21:27 | 7.17447 | 79.88008 | 34 ft | 10 kts | 128° |
| 2026-04-24 21:27 | 7.17440 | 79.88077 | 34 ft | 11 kts | 65° |
| 2026-04-24 21:28 | 7.17491 | 79.88127 | 34 ft | 11 kts | 37° |
| 2026-04-24 21:28 | 7.17557 | 79.88178 | 34 ft | 13 kts | 37° |
| 2026-04-24 21:28 | 7.17614 | 79.88251 | 34 ft | 14 kts | 82° |
| 2026-04-24 21:28 | 7.17579 | 79.88317 | 34 ft | 11 kts | 127° |
| 2026-04-24 21:29 | 7.17528 | 79.88382 | 33 ft | 11 kts | 123° |
| 2026-04-24 21:29 | 7.17529 | 79.88413 | 33 ft | 0 kts | 68° |
| 2026-04-24 21:29 | 7.17551 | 79.88442 | 33 ft | 5 kts | 43° |
| 2026-04-24 21:29 | 7.17562 | 79.88451 | 33 ft | 2 kts | 40° |
| 2026-04-24 21:30 | 7.17569 | 79.88457 | 33 ft | 1 kts | 37° |